createdAt,value
2023-08-29T00:00:25.890Z,65.41
2023-08-29T00:02:59.287Z,65.73
2023-08-29T00:05:32.114Z,66.34
2023-08-29T00:08:07.877Z,66.40
2023-08-29T00:10:40.719Z,66.32
2023-08-29T00:13:13.702Z,66.26
2023-08-29T00:15:46.462Z,67.07
2023-08-29T00:18:20.942Z,68.03
2023-08-29T00:20:53.996Z,68.50
2023-08-29T00:23:29.848Z,68.76
2023-08-29T00:26:02.400Z,69.26
2023-08-29T00:28:35.326Z,69.77
2023-08-29T00:31:08.049Z,70.14
2023-08-29T00:33:41.006Z,70.70
2023-08-29T00:36:14.143Z,71.03
2023-08-29T00:38:48.269Z,71.26
2023-08-29T00:41:20.921Z,71.56
2023-08-29T00:43:53.923Z,72.32
2023-08-29T00:46:28.579Z,72.32
2023-08-29T00:49:01.372Z,72.60
2023-08-29T00:51:34.333Z,72.88
2023-08-29T00:54:09.742Z,73.18
2023-08-29T00:56:44.341Z,73.82
2023-08-29T00:59:17.736Z,73.87
2023-08-29T01:01:51.523Z,74.73
2023-08-29T01:04:24.092Z,74.37
2023-08-29T01:06:57.940Z,74.36
2023-08-29T01:09:32.653Z,74.98
2023-08-29T01:12:16.646Z,75.26
2023-08-29T01:14:55.674Z,75.32
2023-08-29T01:17:33.360Z,75.55
2023-08-29T01:20:08.368Z,75.69
2023-08-29T01:23:00.612Z,76.00
2023-08-29T01:25:54.029Z,75.58
2023-08-29T01:28:29.135Z,76.05
2023-08-29T01:31:02.651Z,76.26
2023-08-29T01:33:36.918Z,76.37
2023-08-29T01:36:10.234Z,76.48
2023-08-29T01:38:43.402Z,75.98
2023-08-29T01:41:18.079Z,76.16
2023-08-29T01:43:52.147Z,76.53
2023-08-29T01:46:25.241Z,76.68
2023-08-29T01:49:00.380Z,76.38
2023-08-29T01:51:33.890Z,76.52
2023-08-29T01:54:06.812Z,76.55
2023-08-29T01:56:41.656Z,76.67
2023-08-29T01:59:15.625Z,76.52
2023-08-29T02:01:49.094Z,76.37
2023-08-29T02:04:21.780Z,76.37
2023-08-29T02:06:55.055Z,76.17
2023-08-29T02:09:27.680Z,75.97
2023-08-29T02:12:00.745Z,76.09
2023-08-29T02:14:35.222Z,76.20
2023-08-29T02:17:08.411Z,76.00
2023-08-29T02:19:41.228Z,75.84
2023-08-29T02:22:14.458Z,75.83
2023-08-29T02:24:49.024Z,75.92
2023-08-29T02:27:22.189Z,76.36
2023-08-29T02:29:56.611Z,75.97
2023-08-29T02:32:30.241Z,75.99
2023-08-29T02:35:03.007Z,76.00
2023-08-29T02:37:38.833Z,75.99
2023-08-29T02:40:12.164Z,76.26
2023-08-29T02:42:45.517Z,76.04
2023-08-29T02:45:19.537Z,76.31
2023-08-29T02:47:52.365Z,75.74
2023-08-29T02:50:25.623Z,75.77
2023-08-29T02:52:58.659Z,76.05
2023-08-29T02:55:31.302Z,75.92
2023-08-29T02:58:04.822Z,75.76
2023-08-29T03:00:39.594Z,75.78
2023-08-29T03:03:13.163Z,75.58
2023-08-29T03:05:54.779Z,75.20
2023-08-29T03:08:28.141Z,75.34
2023-08-29T03:11:07.157Z,75.70
2023-08-29T03:13:40.814Z,76.04
2023-08-29T03:16:18.901Z,75.70
2023-08-29T03:18:53.339Z,75.79
2023-08-29T03:21:26.316Z,75.84
2023-08-29T03:23:59.282Z,75.87
2023-08-29T03:26:32.288Z,75.93
2023-08-29T03:29:05.286Z,75.94
2023-08-29T03:31:39.906Z,75.86
2023-08-29T03:34:13.140Z,75.69
2023-08-29T03:36:46.184Z,75.74
2023-08-29T03:39:19.174Z,76.55
2023-08-29T03:41:51.674Z,76.31
2023-08-29T03:44:25.553Z,76.51
2023-08-29T03:46:59.541Z,76.61
2023-08-29T03:49:32.821Z,76.75
2023-08-29T03:52:05.899Z,76.93
2023-08-29T03:54:38.823Z,76.92
2023-08-29T03:57:11.824Z,77.10
2023-08-29T03:59:45.196Z,76.81
2023-08-29T04:02:21.383Z,77.38
2023-08-29T04:04:55.387Z,77.03
2023-08-29T04:07:28.179Z,77.56
2023-08-29T04:10:01.381Z,77.86
2023-08-29T04:12:35.918Z,77.40
2023-08-29T04:15:11.897Z,77.26
2023-08-29T04:17:46.319Z,77.62
2023-08-29T04:20:19.700Z,77.88
2023-08-29T04:22:53.026Z,77.81
2023-08-29T04:25:27.814Z,78.16
2023-08-29T04:28:01.210Z,78.07
2023-08-29T04:30:34.934Z,78.08
2023-08-29T04:33:08.974Z,78.55
2023-08-29T04:35:42.227Z,78.70
2023-08-29T04:38:15.025Z,78.47
2023-08-29T04:40:48.058Z,78.37
2023-08-29T04:43:20.760Z,78.65
2023-08-29T04:45:54.045Z,78.43
2023-08-29T04:48:28.374Z,78.91
2023-08-29T04:51:01.324Z,78.85
2023-08-29T04:53:34.398Z,79.29
2023-08-29T04:56:07.863Z,78.96
2023-08-29T04:58:42.801Z,79.21
2023-08-29T05:01:15.821Z,79.30
2023-08-29T05:03:50.608Z,79.43
2023-08-29T05:06:26.451Z,79.54
2023-08-29T05:08:59.454Z,79.65
2023-08-29T05:11:32.519Z,79.14
2023-08-29T05:14:05.480Z,79.34
2023-08-29T05:16:39.567Z,79.39
2023-08-29T05:19:14.153Z,79.43
2023-08-29T05:21:48.139Z,79.08
2023-08-29T05:24:22.126Z,79.38
2023-08-29T05:26:56.913Z,79.59
2023-08-29T05:29:29.617Z,78.98
2023-08-29T05:32:02.727Z,79.46
2023-08-29T05:34:37.016Z,79.85
2023-08-29T05:37:10.330Z,79.87
2023-08-29T05:39:43.098Z,79.50
2023-08-29T05:42:17.117Z,79.79
2023-08-29T05:44:49.710Z,79.70
2023-08-29T05:47:22.370Z,79.93
2023-08-29T05:49:56.627Z,79.59
2023-08-29T05:52:30.116Z,79.71
2023-08-29T05:55:02.713Z,79.55
2023-08-29T05:57:36.525Z,79.69
2023-08-29T06:00:15.203Z,80.09
2023-08-29T06:02:49.685Z,79.85
2023-08-29T06:05:25.085Z,79.98
2023-08-29T06:08:08.908Z,79.71
2023-08-29T06:10:50.909Z,79.68
2023-08-29T06:13:23.730Z,79.91
2023-08-29T06:15:56.977Z,79.91
2023-08-29T06:18:30.273Z,79.54
2023-08-29T06:21:06.266Z,79.76
2023-08-29T06:23:38.881Z,79.59
2023-08-29T06:26:11.808Z,79.44
2023-08-29T06:28:44.726Z,79.63
2023-08-29T06:31:17.849Z,80.00
2023-08-29T06:33:50.743Z,80.18
2023-08-29T06:36:25.455Z,79.96
2023-08-29T06:38:58.386Z,79.88
2023-08-29T06:41:31.004Z,79.85
2023-08-29T06:44:04.421Z,79.84
2023-08-29T06:46:36.962Z,79.82
2023-08-29T06:49:10.597Z,79.69
2023-08-29T06:51:50.390Z,79.85
2023-08-29T06:54:23.586Z,79.94
2023-08-29T06:56:56.736Z,80.17
2023-08-29T06:59:29.875Z,79.84
2023-08-29T07:02:05.555Z,79.75
2023-08-29T07:04:38.666Z,79.61
2023-08-29T07:07:13.633Z,80.10
2023-08-29T07:09:46.446Z,80.09
2023-08-29T07:12:21.489Z,80.15
2023-08-29T07:14:54.788Z,80.14
2023-08-29T07:17:27.914Z,80.02
2023-08-29T07:20:01.008Z,79.80
2023-08-29T07:22:36.647Z,79.83
2023-08-29T07:25:10.307Z,79.87
2023-08-29T07:27:43.662Z,80.07
2023-08-29T07:30:17.042Z,80.13
2023-08-29T07:32:50.817Z,80.08
2023-08-29T07:35:24.127Z,80.02
2023-08-29T07:37:58.091Z,79.93
2023-08-29T07:40:31.057Z,80.17
2023-08-29T07:43:04.896Z,80.38
2023-08-29T07:45:38.495Z,80.38
2023-08-29T07:48:11.632Z,80.26
2023-08-29T07:50:45.193Z,80.20
2023-08-29T07:53:19.565Z,80.03
2023-08-29T07:55:55.325Z,80.33
2023-08-29T07:58:28.288Z,79.53
2023-08-29T08:01:03.373Z,79.65
2023-08-29T08:03:37.497Z,79.59
2023-08-29T08:06:10.118Z,79.39
2023-08-29T08:08:44.884Z,79.54
2023-08-29T08:11:17.631Z,79.73
2023-08-29T08:13:50.646Z,79.92
2023-08-29T08:16:23.960Z,79.89
2023-08-29T08:18:56.941Z,79.76
2023-08-29T08:21:30.352Z,79.98
2023-08-29T08:24:05.791Z,79.97
2023-08-29T08:26:38.928Z,79.97
2023-08-29T08:29:11.857Z,79.88
2023-08-29T08:31:45.586Z,79.72
2023-08-29T08:34:19.176Z,79.48
2023-08-29T08:36:52.794Z,79.67
2023-08-29T08:39:27.422Z,79.59
2023-08-29T08:42:03.929Z,79.82
2023-08-29T08:44:38.953Z,79.57
2023-08-29T08:47:13.924Z,79.42
2023-08-29T08:49:47.355Z,79.44
2023-08-29T08:52:20.642Z,79.49
2023-08-29T08:54:54.651Z,79.60
2023-08-29T08:57:27.329Z,79.46
2023-08-29T09:00:00.881Z,79.44
2023-08-29T09:02:39.279Z,79.54
2023-08-29T09:05:12.186Z,79.42
2023-08-29T09:07:44.915Z,79.61
2023-08-29T09:10:21.291Z,79.55
2023-08-29T09:12:57.036Z,79.25
2023-08-29T09:15:30.201Z,79.09
2023-08-29T09:18:03.694Z,78.74
2023-08-29T09:20:36.550Z,79.09
2023-08-29T09:23:21.899Z,78.82
2023-08-29T09:25:57.479Z,78.78
2023-08-29T09:28:31.014Z,78.79
2023-08-29T09:31:12.412Z,78.86
2023-08-29T09:33:49.498Z,78.73
2023-08-29T09:36:22.856Z,78.86
2023-08-29T09:38:59.313Z,78.67
2023-08-29T09:41:34.038Z,78.68
2023-08-29T09:44:13.404Z,78.97
2023-08-29T09:46:46.508Z,78.72
2023-08-29T09:49:19.764Z,78.77
2023-08-29T09:51:53.373Z,78.91
2023-08-29T09:54:27.226Z,78.87
2023-08-29T09:57:07.461Z,78.94
2023-08-29T09:59:42.703Z,79.25
2023-08-29T10:02:16.669Z,79.26
2023-08-29T10:04:55.724Z,79.41
2023-08-29T10:07:39.470Z,79.48
2023-08-29T10:10:12.107Z,79.39
2023-08-29T10:12:48.057Z,79.60
2023-08-29T10:15:23.268Z,79.58
2023-08-29T10:17:58.026Z,79.86
2023-08-29T10:20:33.573Z,79.55
2023-08-29T10:23:09.602Z,79.75
2023-08-29T10:25:43.294Z,79.55
2023-08-29T10:28:19.652Z,79.70
2023-08-29T10:30:55.944Z,79.81
2023-08-29T10:33:29.200Z,79.63
2023-08-29T10:36:05.167Z,79.93
2023-08-29T10:38:47.656Z,79.88
2023-08-29T10:41:22.059Z,79.66
2023-08-29T10:44:26.983Z,79.55
2023-08-29T10:47:16.680Z,79.58
2023-08-29T10:49:49.383Z,79.71
2023-08-29T10:52:22.678Z,79.96
2023-08-29T10:55:03.742Z,79.58
2023-08-29T10:57:37.541Z,79.62
2023-08-29T11:00:18.568Z,79.74
2023-08-29T11:02:53.526Z,80.09
2023-08-29T11:05:26.619Z,80.30
2023-08-29T11:08:24.047Z,79.81
2023-08-29T11:11:18.883Z,79.96
2023-08-29T11:13:59.660Z,80.20
2023-08-29T11:16:39.447Z,80.14
2023-08-29T11:19:15.679Z,80.07
2023-08-29T11:21:49.656Z,80.41
2023-08-29T11:24:23.133Z,80.48
2023-08-29T11:26:59.450Z,80.31
2023-08-29T11:29:37.219Z,80.20
2023-08-29T11:32:10.636Z,79.91
2023-08-29T11:34:45.348Z,79.78
2023-08-29T11:37:17.849Z,79.73
2023-08-29T11:39:54.477Z,79.69
2023-08-29T11:42:50.026Z,79.93
2023-08-29T11:45:46.116Z,79.87
2023-08-29T11:48:22.395Z,79.82
2023-08-29T11:50:58.158Z,79.80
2023-08-29T11:53:32.600Z,79.90
2023-08-29T11:56:07.522Z,79.64
2023-08-29T11:58:41.323Z,79.57
2023-08-29T12:01:14.500Z,79.90
2023-08-29T12:03:47.555Z,79.98
2023-08-29T12:06:27.110Z,79.61
2023-08-29T12:09:01.262Z,79.61
2023-08-29T12:11:43.257Z,79.83
2023-08-29T12:14:15.839Z,79.59
2023-08-29T12:16:54.266Z,79.40
2023-08-29T12:19:27.262Z,79.25
2023-08-29T12:22:03.201Z,79.34
2023-08-29T12:24:36.027Z,79.71
2023-08-29T12:27:09.530Z,79.84
2023-08-29T12:29:42.890Z,79.97
2023-08-29T12:32:17.843Z,80.24
2023-08-29T12:34:50.857Z,79.99
2023-08-29T12:37:25.707Z,80.48
2023-08-29T12:39:59.162Z,79.96
2023-08-29T12:42:32.187Z,80.27
2023-08-29T12:45:06.758Z,80.12
2023-08-29T12:47:39.698Z,80.22
2023-08-29T12:50:14.805Z,80.13
2023-08-29T12:52:51.014Z,80.22
2023-08-29T12:55:24.120Z,80.47
2023-08-29T12:57:56.976Z,80.44
2023-08-29T13:00:30.021Z,80.55
2023-08-29T13:03:02.764Z,80.60
2023-08-29T13:05:36.145Z,80.62
2023-08-29T13:08:10.634Z,80.54
2023-08-29T13:10:44.074Z,80.21
2023-08-29T13:13:17.969Z,80.56
2023-08-29T13:15:51.865Z,80.74
2023-08-29T13:18:25.171Z,80.64
2023-08-29T13:20:58.293Z,80.89
2023-08-29T13:23:33.390Z,80.75
2023-08-29T13:26:06.684Z,80.89
2023-08-29T13:28:39.814Z,80.82
2023-08-29T13:31:12.781Z,80.88
2023-08-29T13:33:46.779Z,81.25
2023-08-29T13:36:20.084Z,81.13
2023-08-29T13:38:54.288Z,81.17
2023-08-29T13:41:27.511Z,81.33
2023-08-29T13:44:00.108Z,81.27
2023-08-29T13:46:33.351Z,81.46
2023-08-29T13:49:06.097Z,81.44
2023-08-29T13:51:39.330Z,81.35
2023-08-29T13:54:13.243Z,81.52
2023-08-29T13:56:46.324Z,81.60
2023-08-29T13:59:19.977Z,81.70
2023-08-29T14:01:53.281Z,81.55
2023-08-29T14:04:25.959Z,81.85
2023-08-29T14:06:58.946Z,81.75
2023-08-29T14:09:33.426Z,81.63
2023-08-29T14:12:07.918Z,81.91
2023-08-29T14:14:41.463Z,82.00
2023-08-29T14:17:14.904Z,81.84
2023-08-29T14:19:47.461Z,81.94
2023-08-29T14:22:20.654Z,81.78
2023-08-29T14:24:55.279Z,81.67
2023-08-29T14:27:27.960Z,81.76
2023-08-29T14:30:01.113Z,81.65
2023-08-29T14:32:39.639Z,81.54
2023-08-29T14:35:14.166Z,81.41
2023-08-29T14:37:47.182Z,81.27
2023-08-29T14:40:25.479Z,81.21
2023-08-29T14:42:58.395Z,81.36
2023-08-29T14:45:31.823Z,81.03
2023-08-29T14:48:05.648Z,81.40
2023-08-29T14:50:38.998Z,81.49
2023-08-29T14:53:17.329Z,81.46
2023-08-29T14:55:53.876Z,81.34
2023-08-29T14:58:28.191Z,81.44
2023-08-29T15:01:01.688Z,81.31
2023-08-29T15:03:35.735Z,81.47
2023-08-29T15:06:12.665Z,81.64
2023-08-29T15:08:45.255Z,81.62
2023-08-29T15:11:21.863Z,81.28
2023-08-29T15:13:54.556Z,81.35
2023-08-29T15:16:27.651Z,81.40
2023-08-29T15:19:01.625Z,81.42
2023-08-29T15:21:34.729Z,81.46
2023-08-29T15:24:09.623Z,81.50
2023-08-29T15:26:45.178Z,81.68
2023-08-29T15:29:19.583Z,81.66
2023-08-29T15:31:52.569Z,81.38
2023-08-29T15:34:26.411Z,81.76
2023-08-29T15:36:59.560Z,81.67
2023-08-29T15:39:34.727Z,81.76
2023-08-29T15:42:09.029Z,81.78
2023-08-29T15:44:42.927Z,81.96
2023-08-29T15:47:16.180Z,81.90
2023-08-29T15:49:49.490Z,82.19
2023-08-29T15:52:22.531Z,81.86
2023-08-29T15:54:55.843Z,81.82
2023-08-29T15:57:30.677Z,82.02
2023-08-29T16:00:10.936Z,82.12
2023-08-29T16:02:45.639Z,81.94
2023-08-29T16:05:20.316Z,81.66
2023-08-29T16:07:53.560Z,82.20
2023-08-29T16:10:26.613Z,82.11
2023-08-29T16:13:01.345Z,82.21
2023-08-29T16:15:35.066Z,82.27
2023-08-29T16:18:08.150Z,82.34
2023-08-29T16:20:42.504Z,82.19
2023-08-29T16:23:15.460Z,82.19
2023-08-29T16:25:50.869Z,82.11
2023-08-29T16:28:24.937Z,82.19
2023-08-29T16:31:01.439Z,82.14
2023-08-29T16:33:34.737Z,82.24
2023-08-29T16:36:08.334Z,82.27
2023-08-29T16:38:41.418Z,82.26
2023-08-29T16:41:14.636Z,82.36
2023-08-29T16:43:49.317Z,82.23
2023-08-29T16:46:22.311Z,82.34
2023-08-29T16:48:56.226Z,82.29
2023-08-29T16:51:28.786Z,82.38
2023-08-29T16:54:01.693Z,81.88
2023-08-29T16:56:34.266Z,82.18
2023-08-29T16:59:09.313Z,82.50
2023-08-29T17:01:42.108Z,82.35
2023-08-29T17:04:15.338Z,82.59
2023-08-29T17:06:48.977Z,82.43
2023-08-29T17:09:23.296Z,82.44
2023-08-29T17:11:55.990Z,82.42
2023-08-29T17:14:30.505Z,82.37
2023-08-29T17:17:03.817Z,82.51
2023-08-29T17:19:36.622Z,82.11
2023-08-29T17:22:09.992Z,82.47
2023-08-29T17:24:43.799Z,82.50
2023-08-29T17:27:24.170Z,82.65
2023-08-29T17:29:58.727Z,82.43
2023-08-29T17:32:32.744Z,82.42
2023-08-29T17:35:06.719Z,82.49
2023-08-29T17:37:41.880Z,82.24
2023-08-29T17:40:15.363Z,82.36
2023-08-29T17:42:49.105Z,82.66
2023-08-29T17:45:23.362Z,82.61
2023-08-29T17:47:56.125Z,82.70
2023-08-29T17:50:30.470Z,82.63
2023-08-29T17:53:04.043Z,82.70
2023-08-29T17:55:37.419Z,82.82
2023-08-29T17:58:13.886Z,82.70
2023-08-29T18:00:49.595Z,82.69
2023-08-29T18:03:22.845Z,82.70
2023-08-29T18:06:01.479Z,82.66
2023-08-29T18:08:41.244Z,82.66
2023-08-29T18:11:15.660Z,82.50
2023-08-29T18:13:52.385Z,82.51
2023-08-29T18:16:26.586Z,82.73
2023-08-29T18:19:01.161Z,82.89
2023-08-29T18:21:34.401Z,82.62
2023-08-29T18:24:07.977Z,82.67
2023-08-29T18:26:40.571Z,82.79
2023-08-29T18:29:13.910Z,82.60
2023-08-29T18:31:49.277Z,82.56
2023-08-29T18:34:22.137Z,82.73
2023-08-29T18:36:55.226Z,82.70
2023-08-29T18:39:28.879Z,82.80
2023-08-29T18:42:02.190Z,82.80
2023-08-29T18:44:38.217Z,82.54
2023-08-29T18:47:12.640Z,82.42
2023-08-29T18:49:45.338Z,82.45
2023-08-29T18:52:18.524Z,82.54
2023-08-29T18:54:51.772Z,82.24
2023-08-29T18:57:26.243Z,82.32
2023-08-29T18:59:59.262Z,82.12
2023-08-29T19:02:36.618Z,82.43
2023-08-29T19:05:10.853Z,82.44
2023-08-29T19:07:46.352Z,82.26
2023-08-29T19:10:20.065Z,82.46
2023-08-29T19:12:52.676Z,82.46
2023-08-29T19:15:26.142Z,82.39
2023-08-29T19:18:05.556Z,82.45
2023-08-29T19:20:39.348Z,82.62
2023-08-29T19:23:12.509Z,82.55
2023-08-29T19:25:46.664Z,82.66
2023-08-29T19:28:20.581Z,82.39
2023-08-29T19:30:55.826Z,82.81
2023-08-29T19:33:30.789Z,82.68
2023-08-29T19:36:14.287Z,82.29
2023-08-29T19:38:48.217Z,82.32
2023-08-29T19:41:20.838Z,82.64
2023-08-29T19:43:54.244Z,82.64
2023-08-29T19:46:27.184Z,82.42
2023-08-29T19:49:03.728Z,82.53
2023-08-29T19:51:36.693Z,82.63
2023-08-29T19:54:10.850Z,82.53
2023-08-29T19:56:48.858Z,82.64
2023-08-29T19:59:22.671Z,82.71
2023-08-29T20:01:55.413Z,82.79
2023-08-29T20:04:30.076Z,82.57
2023-08-29T20:07:03.364Z,82.70
2023-08-29T20:09:36.516Z,82.64
2023-08-29T20:12:10.275Z,82.61
2023-08-29T20:14:43.486Z,82.56
2023-08-29T20:17:16.698Z,82.72
2023-08-29T20:19:51.200Z,82.54
2023-08-29T20:22:24.525Z,82.42
2023-08-29T20:24:57.402Z,82.59
2023-08-29T20:27:31.898Z,82.54
2023-08-29T20:30:07.640Z,82.47
2023-08-29T20:32:41.095Z,82.42
2023-08-29T20:35:15.256Z,82.46
2023-08-29T20:37:49.325Z,82.57
2023-08-29T20:40:22.465Z,82.44
2023-08-29T20:42:56.224Z,82.45
2023-08-29T20:45:30.322Z,82.31
2023-08-29T20:48:04.800Z,82.36
2023-08-29T20:50:42.062Z,82.51
2023-08-29T20:53:15.560Z,82.61
2023-08-29T20:55:48.164Z,82.67
2023-08-29T20:58:21.980Z,82.67
2023-08-29T21:00:58.913Z,82.47
2023-08-29T21:03:33.233Z,82.63
2023-08-29T21:06:08.195Z,82.68
2023-08-29T21:08:41.097Z,82.99
2023-08-29T21:11:13.785Z,82.81
2023-08-29T21:13:47.052Z,82.90
2023-08-29T21:16:19.526Z,82.77
2023-08-29T21:18:52.745Z,82.88
2023-08-29T21:21:27.080Z,82.54
2023-08-29T21:24:00.342Z,82.65
2023-08-29T21:26:33.081Z,82.42
2023-08-29T21:29:06.015Z,82.60
2023-08-29T21:32:04.772Z,82.25
2023-08-29T21:34:42.572Z,81.99
2023-08-29T21:37:35.541Z,82.32
2023-08-29T21:40:13.037Z,82.39
2023-08-29T21:42:49.506Z,82.46
2023-08-29T21:45:27.743Z,82.51
2023-08-29T21:48:25.970Z,82.61
2023-08-29T21:51:30.143Z,82.53
2023-08-29T21:54:04.956Z,82.54
2023-08-29T21:56:41.072Z,82.48
2023-08-29T21:59:19.547Z,82.43
2023-08-29T22:02:02.505Z,82.32
2023-08-29T22:04:37.233Z,82.22
2023-08-29T22:07:10.959Z,82.30
2023-08-29T22:09:51.026Z,82.13
2023-08-29T22:12:23.986Z,82.51
2023-08-29T22:14:56.532Z,82.25
2023-08-29T22:17:29.526Z,82.07
2023-08-29T22:20:02.405Z,81.99
2023-08-29T22:22:37.635Z,82.18
2023-08-29T22:25:17.280Z,82.17
2023-08-29T22:27:52.287Z,82.02
2023-08-29T22:30:25.894Z,82.15
2023-08-29T22:32:59.204Z,82.00
2023-08-29T22:35:36.473Z,81.95
2023-08-29T22:38:24.879Z,82.18
2023-08-29T22:41:28.779Z,82.22
2023-08-29T22:44:08.355Z,82.37
2023-08-29T22:46:44.995Z,82.40
2023-08-29T22:49:22.761Z,82.23
2023-08-29T22:52:00.690Z,82.43
2023-08-29T22:54:35.016Z,82.34
2023-08-29T22:57:19.313Z,82.25
2023-08-29T23:00:02.795Z,82.17
2023-08-29T23:02:47.620Z,82.44
2023-08-29T23:05:22.496Z,82.52
2023-08-29T23:07:55.926Z,82.39
2023-08-29T23:10:29.476Z,82.24
2023-08-29T23:13:09.541Z,82.34
2023-08-29T23:15:49.587Z,82.41
2023-08-29T23:18:33.113Z,82.33
2023-08-29T23:21:06.621Z,82.17
2023-08-29T23:23:39.708Z,82.41
2023-08-29T23:26:24.156Z,82.35
2023-08-29T23:28:59.389Z,82.26
2023-08-29T23:31:33.510Z,82.26
2023-08-29T23:34:06.934Z,81.99
2023-08-29T23:36:40.771Z,82.17
2023-08-29T23:39:13.788Z,82.13
2023-08-29T23:41:49.023Z,82.09
2023-08-29T23:44:24.124Z,81.95
2023-08-29T23:46:57.515Z,82.07
2023-08-29T23:49:30.814Z,82.38
2023-08-29T23:52:04.513Z,82.14
2023-08-29T23:54:37.533Z,82.25
2023-08-29T23:57:10.086Z,82.31
2023-08-29T23:59:44.113Z,82.42
